sensor_id;sensor_type;location;lat;lon;timestamp;pressure;altitude;pressure_sealevel;temperature;humidity
85870;BME280;76385;52.392;16.922;2024-02-21T00:05:09;101589.0;;;5.66;91.73
85870;BME280;76385;52.392;16.922;2024-02-21T00:20:09;101584.0;;;5.65;91.65
85870;BME280;76385;52.392;16.922;2024-02-21T00:35:09;101572.0;;;5.56;91.8
85870;BME280;76385;52.392;16.922;2024-02-21T00:50:09;101566.0;;;5.53;92.09
85870;BME280;76385;52.392;16.922;2024-02-21T01:05:09;101538.0;;;5.56;92.47
85870;BME280;76385;52.392;16.922;2024-02-21T01:20:09;101502.0;;;5.62;92.37
85870;BME280;76385;52.392;16.922;2024-02-21T01:35:10;101490.0;;;5.63;92.39
85870;BME280;76385;52.392;16.922;2024-02-21T01:50:09;101490.0;;;5.64;92.56
85870;BME280;76385;52.392;16.922;2024-02-21T02:05:09;101487.0;;;5.69;92.83
85870;BME280;76385;52.392;16.922;2024-02-21T02:20:10;101476.0;;;5.72;93.18
85870;BME280;76385;52.392;16.922;2024-02-21T02:35:10;101457.0;;;5.72;93.66
85870;BME280;76385;52.392;16.922;2024-02-21T02:50:10;101444.0;;;5.73;93.89
85870;BME280;76385;52.392;16.922;2024-02-21T03:05:09;101432.0;;;5.76;94.05
85870;BME280;76385;52.392;16.922;2024-02-21T03:20:09;101410.0;;;5.74;93.95
85870;BME280;76385;52.392;16.922;2024-02-21T03:35:09;101403.0;;;5.76;93.97
85870;BME280;76385;52.392;16.922;2024-02-21T03:50:09;101394.0;;;5.8;93.61
85870;BME280;76385;52.392;16.922;2024-02-21T04:05:09;101373.0;;;5.78;93.68
85870;BME280;76385;52.392;16.922;2024-02-21T04:20:09;101364.0;;;5.82;93.32
85870;BME280;76385;52.392;16.922;2024-02-21T04:35:09;101354.0;;;5.85;93.18
85870;BME280;76385;52.392;16.922;2024-02-21T04:50:09;101333.0;;;5.83;92.96
85870;BME280;76385;52.392;16.922;2024-02-21T05:05:09;101318.0;;;5.83;93.05
85870;BME280;76385;52.392;16.922;2024-02-21T05:20:09;101311.0;;;5.87;93.41
85870;BME280;76385;52.392;16.922;2024-02-21T05:35:09;101295.0;;;5.89;93.58
85870;BME280;76385;52.392;16.922;2024-02-21T05:50:09;101281.0;;;5.89;93.44
85870;BME280;76385;52.392;16.922;2024-02-21T06:05:09;101281.0;;;5.93;93.01
85870;BME280;76385;52.392;16.922;2024-02-21T06:20:09;101281.0;;;6.01;92.87
85870;BME280;76385;52.392;16.922;2024-02-21T06:35:09;101267.0;;;6.08;92.64
85870;BME280;76385;52.392;16.922;2024-02-21T06:50:09;101254.0;;;6.11;92.32
85870;BME280;76385;52.392;16.922;2024-02-21T07:05:09;101249.0;;;6.19;92.18
85870;BME280;76385;52.392;16.922;2024-02-21T07:20:09;101224.0;;;6.24;92.09
85870;BME280;76385;52.392;16.922;2024-02-21T07:35:09;101215.0;;;6.32;91.97
85870;BME280;76385;52.392;16.922;2024-02-21T07:50:09;101213.0;;;6.4;91.46
85870;BME280;76385;52.392;16.922;2024-02-21T08:05:09;101205.0;;;6.44;91.31
85870;BME280;76385;52.392;16.922;2024-02-21T08:20:09;101220.0;;;6.72;91.3
85870;BME280;76385;52.392;16.922;2024-02-21T08:35:09;101212.0;;;6.78;90.48
85870;BME280;76385;52.392;16.922;2024-02-21T08:50:09;101196.0;;;6.86;89.98
85870;BME280;76385;52.392;16.922;2024-02-21T09:05:09;101182.0;;;6.87;89.87
85870;BME280;76385;52.392;16.922;2024-02-21T09:20:09;101165.0;;;7.03;89.74
85870;BME280;76385;52.392;16.922;2024-02-21T09:35:09;101168.0;;;7.16;88.85
85870;BME280;76385;52.392;16.922;2024-02-21T09:50:10;101161.0;;;7.16;89.25
85870;BME280;76385;52.392;16.922;2024-02-21T10:05:09;101155.0;;;7.16;89.44
85870;BME280;76385;52.392;16.922;2024-02-21T10:20:09;101158.0;;;7.3;88.63
85870;BME280;76385;52.392;16.922;2024-02-21T10:35:09;101157.0;;;7.53;87.72
85870;BME280;76385;52.392;16.922;2024-02-21T10:50:09;101119.0;;;7.85;86.95
85870;BME280;76385;52.392;16.922;2024-02-21T11:05:09;101082.0;;;8.23;85.99
85870;BME280;76385;52.392;16.922;2024-02-21T11:20:09;101065.0;;;8.39;84.28
85870;BME280;76385;52.392;16.922;2024-02-21T11:35:09;101024.0;;;8.37;83.97
85870;BME280;76385;52.392;16.922;2024-02-21T11:50:09;101016.0;;;8.31;83.61
85870;BME280;76385;52.392;16.922;2024-02-21T12:05:09;101020.0;;;8.42;83.61
85870;BME280;76385;52.392;16.922;2024-02-21T12:20:09;101010.0;;;8.37;83.25
85870;BME280;76385;52.392;16.922;2024-02-21T12:35:09;100992.0;;;8.38;83.1
85870;BME280;76385;52.392;16.922;2024-02-21T12:50:09;100971.0;;;8.45;82.72
85870;BME280;76385;52.392;16.922;2024-02-21T13:05:09;100954.0;;;8.55;82.76
85870;BME280;76385;52.392;16.922;2024-02-21T13:20:09;100946.0;;;8.57;82.55
85870;BME280;76385;52.392;16.922;2024-02-21T13:35:09;100939.0;;;8.59;82.28
85870;BME280;76385;52.392;16.922;2024-02-21T13:50:09;100922.0;;;8.63;82.52
85870;BME280;76385;52.392;16.922;2024-02-21T14:05:09;100913.0;;;8.65;82.24
85870;BME280;76385;52.392;16.922;2024-02-21T14:20:09;100910.0;;;8.65;81.85
85870;BME280;76385;52.392;16.922;2024-02-21T14:35:09;100905.0;;;8.67;81.67
85870;BME280;76385;52.392;16.922;2024-02-21T14:50:09;100890.0;;;8.65;81.51
85870;BME280;76385;52.392;16.922;2024-02-21T15:05:09;100877.0;;;8.67;81.65
85870;BME280;76385;52.392;16.922;2024-02-21T15:20:09;100862.0;;;8.64;81.8
85870;BME280;76385;52.392;16.922;2024-02-21T15:35:09;100859.0;;;8.6;81.62
85870;BME280;76385;52.392;16.922;2024-02-21T15:50:09;100848.0;;;8.63;81.63
85870;BME280;76385;52.392;16.922;2024-02-21T16:05:09;100840.0;;;8.59;81.85
85870;BME280;76385;52.392;16.922;2024-02-21T16:20:09;100837.0;;;8.53;81.87
85870;BME280;76385;52.392;16.922;2024-02-21T16:35:10;100828.0;;;8.51;82.02
85870;BME280;76385;52.392;16.922;2024-02-21T16:50:10;100827.0;;;8.54;82.14
85870;BME280;76385;52.392;16.922;2024-02-21T17:05:09;100818.0;;;8.49;82.04
85870;BME280;76385;52.392;16.922;2024-02-21T17:25:09;100800.0;;;8.44;81.78
85870;BME280;76385;52.392;16.922;2024-02-21T17:40:09;100768.0;;;8.45;81.77
85870;BME280;76385;52.392;16.922;2024-02-21T17:55:09;100753.0;;;8.48;81.77
85870;BME280;76385;52.392;16.922;2024-02-21T18:10:09;100736.0;;;8.45;81.6
85870;BME280;76385;52.392;16.922;2024-02-21T18:25:09;100722.0;;;8.34;81.64
85870;BME280;76385;52.392;16.922;2024-02-21T18:40:09;100728.0;;;8.28;81.81
85870;BME280;76385;52.392;16.922;2024-02-21T18:55:09;100725.0;;;8.09;82.17
85870;BME280;76385;52.392;16.922;2024-02-21T19:10:09;100707.0;;;7.94;82.4
85870;BME280;76385;52.392;16.922;2024-02-21T19:25:09;100699.0;;;8.0;82.0
85870;BME280;76385;52.392;16.922;2024-02-21T19:40:09;100683.0;;;8.09;81.53
85870;BME280;76385;52.392;16.922;2024-02-21T19:55:09;100668.0;;;8.07;80.79
85870;BME280;76385;52.392;16.922;2024-02-21T20:15:09;100632.0;;;7.81;81.36
85870;BME280;76385;52.392;16.922;2024-02-21T20:30:09;100602.0;;;7.61;81.93
85870;BME280;76385;52.392;16.922;2024-02-21T20:45:09;100580.0;;;7.34;82.82
85870;BME280;76385;52.392;16.922;2024-02-21T21:00:09;100547.0;;;7.01;84.0
85870;BME280;76385;52.392;16.922;2024-02-21T21:15:09;100535.0;;;6.67;85.14
85870;BME280;76385;52.392;16.922;2024-02-21T21:30:09;100518.0;;;6.39;85.82
85870;BME280;76385;52.392;16.922;2024-02-21T21:45:09;100492.0;;;6.16;86.22
85870;BME280;76385;52.392;16.922;2024-02-21T22:00:09;100462.0;;;5.98;86.46
85870;BME280;76385;52.392;16.922;2024-02-21T22:15:09;100443.0;;;5.82;86.52
85870;BME280;76385;52.392;16.922;2024-02-21T22:30:09;100428.0;;;5.6;87.44
85870;BME280;76385;52.392;16.922;2024-02-21T22:45:09;100423.0;;;5.42;87.96
85870;BME280;76385;52.392;16.922;2024-02-21T23:00:09;100410.0;;;5.31;88.71
85870;BME280;76385;52.392;16.922;2024-02-21T23:15:09;100397.0;;;5.28;88.71
85870;BME280;76385;52.392;16.922;2024-02-21T23:30:09;100356.0;;;5.29;88.69
85870;BME280;76385;52.392;16.922;2024-02-21T23:45:09;100321.0;;;5.21;88.8
